Time;durP1;ratioP1;P1;durP2;ratioP2;P2;SDS_P1;SDS_P2;PMS_P1;PMS_P2;Temp;Humidity;BMP_temperature;BMP_pressure;BME280_temperature;BME280_humidity;BME280_pressure;Samples;Min_cycle;Max_cycle;Signal;HPM_P1;HPM_P2
2022/11/27 00:00:30;;;;;;;9.97;5.50;;;;;;;;;;4966652;28;20196;-77
2022/11/27 00:02:55;;;;;;;8.57;5.50;;;;;;;;;;4966991;28;20244;-77
2022/11/27 00:05:21;;;;;;;10.00;6.00;;;;;;;;;;4965143;28;20232;-77
2022/11/27 00:07:46;;;;;;;11.17;5.70;;;;;;;;;;4966722;28;20200;-77
2022/11/27 00:10:11;;;;;;;9.13;5.40;;;;;;;;;;4968622;28;20236;-77
2022/11/27 00:12:36;;;;;;;9.10;5.87;;;;;;;;;;4965477;28;20223;-77
2022/11/27 00:15:02;;;;;;;7.23;5.07;;;;;;;;;;4966067;28;20194;-77
2022/11/27 00:17:27;;;;;;;9.93;5.53;;;;;;;;;;4966860;28;20201;-77
2022/11/27 00:19:53;;;;;;;7.73;4.60;;;;;;;;;;4965948;28;20233;-76
2022/11/27 00:22:18;;;;;;;7.23;4.67;;;;;;;;;;4967022;28;20272;-77
2022/11/27 00:24:43;;;;;;;7.43;4.43;;;;;;;;;;4966386;28;20198;-77
2022/11/27 00:27:09;;;;;;;9.37;5.20;;;;;;;;;;4968788;28;20216;-77
2022/11/27 00:29:34;;;;;;;15.77;4.93;;;;;;;;;;4962961;28;20177;-77
2022/11/27 00:31:59;;;;;;;7.03;4.27;;;;;;;;;;4968409;28;20268;-76
2022/11/27 00:34:25;;;;;;;8.03;4.10;;;;;;;;;;4970195;28;20212;-76
2022/11/27 00:36:50;;;;;;;11.97;5.03;;;;;;;;;;4964313;28;20324;-77
2022/11/27 00:39:15;;;;;;;5.07;3.97;;;;;;;;;;4967108;28;20180;-77
2022/11/27 00:41:41;;;;;;;8.47;5.10;;;;;;;;;;4965091;28;20188;-76
2022/11/27 00:44:06;;;;;;;11.63;4.90;;;;;;;;;;4963174;28;20202;-77
2022/11/27 00:46:32;;;;;;;7.80;4.43;;;;;;;;;;4973455;28;20185;-76
2022/11/27 00:48:58;;;;;;;8.93;4.73;;;;;;;;;;4973823;28;20181;-77
2022/11/27 00:51:24;;;;;;;8.43;4.87;;;;;;;;;;4980058;28;20267;-76
2022/11/27 00:53:49;;;;;;;9.70;4.90;;;;;;;;;;4967533;28;20311;-76
2022/11/27 00:56:25;;;;;;;7.93;4.97;;;;;;;;;;4969662;28;20291;-77
2022/11/27 00:58:51;;;;;;;7.90;4.80;;;;;;;;;;4966043;28;20184;-77
2022/11/27 01:01:42;;;;;;;11.57;5.00;;;;;;;;;;4962754;28;20204;-76
2022/11/27 01:04:11;;;;;;;9.53;5.90;;;;;;;;;;4961879;28;20292;-77
2022/11/27 01:06:36;;;;;;;8.13;4.90;;;;;;;;;;4965452;28;20185;-77
2022/11/27 01:09:02;;;;;;;8.10;5.10;;;;;;;;;;4967390;28;20189;-77
2022/11/27 01:11:29;;;;;;;7.50;4.80;;;;;;;;;;4967028;28;20181;-76
2022/11/27 01:13:55;;;;;;;9.53;5.37;;;;;;;;;;4983677;28;20276;-77
2022/11/27 01:16:21;;;;;;;9.40;4.70;;;;;;;;;;4981862;28;20243;-76
2022/11/27 01:18:47;;;;;;;10.20;4.97;;;;;;;;;;4978874;28;20229;-78
2022/11/27 01:21:13;;;;;;;7.40;4.40;;;;;;;;;;4964830;28;20243;-77
2022/11/27 01:23:38;;;;;;;5.93;4.13;;;;;;;;;;4962013;28;20204;-76
2022/11/27 01:26:06;;;;;;;8.03;4.03;;;;;;;;;;4963783;28;20201;-77
2022/11/27 01:28:32;;;;;;;7.63;4.43;;;;;;;;;;4965397;28;20180;-78
2022/11/27 01:30:57;;;;;;;9.90;5.03;;;;;;;;;;4981797;28;20197;-76
2022/11/27 01:33:23;;;;;;;9.23;4.37;;;;;;;;;;4962857;28;20177;-76
2022/11/27 01:35:52;;;;;;;7.90;3.97;;;;;;;;;;4967955;28;20216;-76
2022/11/27 01:38:17;;;;;;;7.47;4.53;;;;;;;;;;4988341;28;20207;-76
2022/11/27 01:40:42;;;;;;;4.03;3.30;;;;;;;;;;4976826;28;20264;-77
2022/11/27 01:43:13;;;;;;;5.90;4.13;;;;;;;;;;4970408;28;20180;-76
2022/11/27 01:45:38;;;;;;;5.17;4.43;;;;;;;;;;4969322;28;20300;-77
2022/11/27 01:48:03;;;;;;;9.17;4.33;;;;;;;;;;4971761;28;20264;-77
2022/11/27 01:50:34;;;;;;;8.47;4.67;;;;;;;;;;4962834;28;20181;-77
2022/11/27 01:53:09;;;;;;;5.60;3.80;;;;;;;;;;4964933;28;20238;-77
2022/11/27 01:55:36;;;;;;;4.87;3.27;;;;;;;;;;4965720;28;20185;-77
2022/11/27 01:58:12;;;;;;;7.30;3.57;;;;;;;;;;4979134;28;20190;-77
2022/11/27 02:00:38;;;;;;;6.37;3.87;;;;;;;;;;4964064;28;20181;-77
2022/11/27 02:03:03;;;;;;;4.60;3.37;;;;;;;;;;4964501;28;21586;-77
2022/11/27 02:05:28;;;;;;;8.23;4.43;;;;;;;;;;4964211;28;20219;-77
2022/11/27 02:07:55;;;;;;;7.67;3.87;;;;;;;;;;4963456;28;20185;-77
2022/11/27 02:10:22;;;;;;;6.03;3.70;;;;;;;;;;4965138;28;20180;-77
2022/11/27 02:12:53;;;;;;;6.37;4.40;;;;;;;;;;4963288;28;20181;-77
2022/11/27 02:15:39;;;;;;;7.50;3.47;;;;;;;;;;4971808;28;20188;-77
2022/11/27 02:18:13;;;;;;;5.37;3.97;;;;;;;;;;4964510;28;20231;-76
2022/11/27 02:20:49;;;;;;;6.50;3.17;;;;;;;;;;4967838;28;20187;-76
2022/11/27 02:23:46;;;;;;;5.00;3.53;;;;;;;;;;4979101;28;20238;-77
2022/11/27 02:26:24;;;;;;;5.07;3.27;;;;;;;;;;4945133;28;20198;-77
2022/11/27 02:29:02;;;;;;;4.53;3.53;;;;;;;;;;4976310;28;20176;-77
2022/11/27 02:31:34;;;;;;;7.50;3.50;;;;;;;;;;4969662;28;20184;-77
2022/11/27 02:34:05;;;;;;;3.67;2.80;;;;;;;;;;4968804;28;20192;-77
2022/11/27 02:36:32;;;;;;;5.37;3.00;;;;;;;;;;4985021;28;20180;-77
2022/11/27 02:39:07;;;;;;;7.07;3.70;;;;;;;;;;4978607;28;20210;-77
2022/11/27 02:41:37;;;;;;;6.80;3.47;;;;;;;;;;4983733;28;20180;-77
2022/11/27 02:44:03;;;;;;;5.40;3.80;;;;;;;;;;4968711;28;20212;-77
2022/11/27 02:46:28;;;;;;;6.67;3.67;;;;;;;;;;4964128;28;20196;-77
2022/11/27 02:49:00;;;;;;;5.33;3.60;;;;;;;;;;4970780;28;20181;-77
2022/11/27 02:51:28;;;;;;;4.70;2.97;;;;;;;;;;4968722;28;21740;-77
2022/11/27 02:53:55;;;;;;;4.47;2.77;;;;;;;;;;4977772;28;20261;-77
2022/11/27 02:56:22;;;;;;;8.20;3.10;;;;;;;;;;4979617;28;20176;-77
2022/11/27 02:58:48;;;;;;;6.37;3.40;;;;;;;;;;4969223;28;20192;-77
2022/11/27 03:01:15;;;;;;;5.63;3.37;;;;;;;;;;4968704;28;20184;-77
2022/11/27 03:03:44;;;;;;;6.47;3.30;;;;;;;;;;4973920;28;20231;-78
2022/11/27 03:06:11;;;;;;;5.07;3.33;;;;;;;;;;4968231;28;20180;-77
2022/11/27 03:08:45;;;;;;;3.53;2.93;;;;;;;;;;4968739;28;20412;-76
2022/11/27 03:11:12;;;;;;;3.73;2.93;;;;;;;;;;4971774;28;20239;-77
2022/11/27 03:13:42;;;;;;;3.20;2.90;;;;;;;;;;4973121;28;20187;-77
2022/11/27 03:16:23;;;;;;;6.10;3.40;;;;;;;;;;4966258;28;20257;-77
2022/11/27 03:18:48;;;;;;;3.93;2.80;;;;;;;;;;4967074;28;20295;-77
2022/11/27 03:21:26;;;;;;;5.80;3.43;;;;;;;;;;4971543;28;20320;-77
2022/11/27 03:23:51;;;;;;;4.50;3.20;;;;;;;;;;4978984;28;20247;-77
2022/11/27 03:26:16;;;;;;;8.93;3.43;;;;;;;;;;4962132;28;20204;-77
2022/11/27 03:28:43;;;;;;;4.20;2.90;;;;;;;;;;4963459;28;20180;-77
2022/11/27 03:31:08;;;;;;;6.50;3.17;;;;;;;;;;4960660;28;20192;-77
2022/11/27 03:33:33;;;;;;;5.93;2.83;;;;;;;;;;4979466;28;20180;-78
2022/11/27 03:35:58;;;;;;;3.13;2.53;;;;;;;;;;4967082;28;20184;-77
2022/11/27 03:38:24;;;;;;;4.50;2.60;;;;;;;;;;4966867;28;20188;-77
2022/11/27 03:40:55;;;;;;;2.87;2.57;;;;;;;;;;4964944;28;20176;-77
2022/11/27 03:43:26;;;;;;;4.17;3.07;;;;;;;;;;4965733;28;20177;-78
2022/11/27 03:46:06;;;;;;;7.10;2.60;;;;;;;;;;4964279;28;20184;-77
2022/11/27 03:48:31;;;;;;;3.87;2.23;;;;;;;;;;4964709;28;20177;-77
2022/11/27 03:51:15;;;;;;;4.30;2.90;;;;;;;;;;4965803;28;20243;-77
2022/11/27 03:53:40;;;;;;;5.13;2.80;;;;;;;;;;4966290;28;20204;-77
2022/11/27 03:56:05;;;;;;;3.67;2.20;;;;;;;;;;4967715;28;20177;-78
2022/11/27 03:58:30;;;;;;;5.03;2.43;;;;;;;;;;4965650;28;20188;-78
2022/11/27 04:00:57;;;;;;;3.63;2.60;;;;;;;;;;4964603;28;20181;-77
2022/11/27 04:03:24;;;;;;;5.97;2.50;;;;;;;;;;4982316;28;20262;-77
2022/11/27 04:05:49;;;;;;;4.33;2.27;;;;;;;;;;4981536;28;20188;-78
2022/11/27 04:08:14;;;;;;;3.80;2.47;;;;;;;;;;4967284;28;20173;-77
2022/11/27 04:10:40;;;;;;;2.63;2.43;;;;;;;;;;4966249;28;20181;-77
2022/11/27 04:13:05;;;;;;;4.13;2.50;;;;;;;;;;4963375;28;20232;-78
2022/11/27 04:15:30;;;;;;;4.37;2.17;;;;;;;;;;4967240;28;20180;-77
2022/11/27 04:17:55;;;;;;;3.30;2.40;;;;;;;;;;4965769;28;20235;-79
2022/11/27 04:20:20;;;;;;;2.77;2.30;;;;;;;;;;4965842;28;20265;-77
2022/11/27 04:22:46;;;;;;;4.20;2.60;;;;;;;;;;4967578;28;20234;-77
2022/11/27 04:25:11;;;;;;;6.03;2.50;;;;;;;;;;4968734;28;20208;-77
2022/11/27 04:27:36;;;;;;;3.03;2.40;;;;;;;;;;4967274;28;20188;-78
2022/11/27 04:30:01;;;;;;;3.37;2.30;;;;;;;;;;4981983;28;20195;-77
2022/11/27 04:32:26;;;;;;;4.80;2.37;;;;;;;;;;4975152;28;20207;-77
2022/11/27 04:34:52;;;;;;;2.83;1.87;;;;;;;;;;4980464;28;20181;-78
2022/11/27 04:37:17;;;;;;;5.30;3.37;;;;;;;;;;4973734;28;20194;-78
2022/11/27 04:39:42;;;;;;;5.90;2.60;;;;;;;;;;4982497;28;20271;-78
2022/11/27 04:42:07;;;;;;;3.73;3.03;;;;;;;;;;4964685;28;20184;-78
2022/11/27 04:44:32;;;;;;;2.53;2.27;;;;;;;;;;4980612;28;20220;-78
2022/11/27 04:46:58;;;;;;;3.20;2.30;;;;;;;;;;4964969;28;20195;-77
2022/11/27 04:49:23;;;;;;;4.37;3.47;;;;;;;;;;4965674;28;20204;-78
2022/11/27 04:51:48;;;;;;;4.97;2.20;;;;;;;;;;4965548;28;20177;-78
2022/11/27 04:54:13;;;;;;;5.20;2.30;;;;;;;;;;4963541;28;20188;-77
2022/11/27 04:56:38;;;;;;;5.80;2.63;;;;;;;;;;4968615;28;20185;-78
2022/11/27 04:59:04;;;;;;;7.10;2.47;;;;;;;;;;4967521;28;20181;-78
2022/11/27 05:01:29;;;;;;;4.77;2.37;;;;;;;;;;4966600;28;20246;-78
2022/11/27 05:03:55;;;;;;;4.10;2.50;;;;;;;;;;4978996;28;20303;-78
2022/11/27 05:06:21;;;;;;;4.63;2.10;;;;;;;;;;4965405;28;20188;-78
2022/11/27 05:08:46;;;;;;;2.27;1.90;;;;;;;;;;4966100;28;20474;-77
2022/11/27 05:11:12;;;;;;;4.27;2.10;;;;;;;;;;4962712;28;20972;-78
2022/11/27 05:13:38;;;;;;;3.93;2.10;;;;;;;;;;4977785;28;20236;-78
2022/11/27 05:16:04;;;;;;;2.23;2.03;;;;;;;;;;4980208;28;20207;-78
2022/11/27 05:18:29;;;;;;;2.83;2.10;;;;;;;;;;4964332;28;20225;-78
2022/11/27 05:20:55;;;;;;;2.30;1.80;;;;;;;;;;4965453;28;20188;-78
2022/11/27 05:23:20;;;;;;;2.63;1.77;;;;;;;;;;4966488;28;20181;-79
2022/11/27 05:25:45;;;;;;;4.00;1.83;;;;;;;;;;4964378;28;20206;-78
2022/11/27 05:28:10;;;;;;;4.07;1.90;;;;;;;;;;4968009;28;20184;-78
2022/11/27 05:30:36;;;;;;;2.17;1.80;;;;;;;;;;4968385;28;20180;-78
2022/11/27 05:33:01;;;;;;;2.60;1.80;;;;;;;;;;4971885;28;20181;-78
2022/11/27 05:35:26;;;;;;;4.83;2.07;;;;;;;;;;4970864;28;20177;-78
2022/11/27 05:37:51;;;;;;;2.33;1.80;;;;;;;;;;4972612;28;20189;-78
2022/11/27 05:40:17;;;;;;;2.37;1.87;;;;;;;;;;4973648;28;20192;-79
2022/11/27 05:42:42;;;;;;;4.70;1.90;;;;;;;;;;4962306;28;20282;-78
2022/11/27 05:45:07;;;;;;;4.63;1.97;;;;;;;;;;4964913;28;20212;-78
2022/11/27 05:47:33;;;;;;;3.50;1.80;;;;;;;;;;4962780;28;20267;-78
2022/11/27 05:49:58;;;;;;;4.53;2.00;;;;;;;;;;4964586;28;20200;-79
2022/11/27 05:52:23;;;;;;;4.40;1.97;;;;;;;;;;4965012;28;20255;-78
2022/11/27 05:54:48;;;;;;;2.10;1.57;;;;;;;;;;4966464;28;20181;-78
2022/11/27 05:57:14;;;;;;;2.90;1.73;;;;;;;;;;4964684;28;20173;-78
2022/11/27 05:59:39;;;;;;;2.87;1.40;;;;;;;;;;4963589;28;20185;-78
2022/11/27 06:02:04;;;;;;;19.83;11.07;;;;;;;;;;4983528;28;20193;-79
2022/11/27 06:04:31;;;;;;;3.33;2.63;;;;;;;;;;4964252;28;20593;-78
2022/11/27 06:06:57;;;;;;;2.33;2.00;;;;;;;;;;4981063;28;20192;-78
2022/11/27 06:09:22;;;;;;;3.87;1.57;;;;;;;;;;4962931;28;20184;-78
2022/11/27 06:11:47;;;;;;;2.50;1.50;;;;;;;;;;4963911;28;20344;-79
2022/11/27 06:14:12;;;;;;;1.80;1.40;;;;;;;;;;4963194;28;20235;-78
2022/11/27 06:16:37;;;;;;;2.27;1.60;;;;;;;;;;4965107;28;20263;-78
2022/11/27 06:19:03;;;;;;;5.90;1.90;;;;;;;;;;4966990;28;20232;-78
2022/11/27 06:21:28;;;;;;;2.83;1.70;;;;;;;;;;4964757;28;20180;-78
2022/11/27 06:23:54;;;;;;;3.00;1.73;;;;;;;;;;4963033;28;20220;-78
2022/11/27 06:26:29;;;;;;;2.80;2.43;;;;;;;;;;4963467;28;20208;-78
2022/11/27 06:28:55;;;;;;;2.87;2.10;;;;;;;;;;4961601;28;20185;-78
2022/11/27 06:31:25;;;;;;;2.80;1.60;;;;;;;;;;4963987;28;20180;-78
2022/11/27 06:33:51;;;;;;;1.60;1.50;;;;;;;;;;4962531;28;20279;-78
2022/11/27 06:36:17;;;;;;;2.93;1.77;;;;;;;;;;4963617;28;20180;-78
2022/11/27 06:38:43;;;;;;;2.27;1.70;;;;;;;;;;4963324;28;20406;-78
2022/11/27 06:41:12;;;;;;;2.53;2.33;;;;;;;;;;4963654;28;20189;-78
2022/11/27 06:43:37;;;;;;;2.20;1.60;;;;;;;;;;4964244;28;20299;-78
2022/11/27 06:46:03;;;;;;;2.37;1.60;;;;;;;;;;4979334;28;20227;-78
2022/11/27 06:48:29;;;;;;;2.40;1.70;;;;;;;;;;4979270;28;20180;-77
2022/11/27 06:50:57;;;;;;;1.27;1.17;;;;;;;;;;4967965;28;20213;-78
2022/11/27 06:53:22;;;;;;;5.97;2.00;;;;;;;;;;4967401;28;20192;-77
2022/11/27 06:55:47;;;;;;;3.50;1.90;;;;;;;;;;4965694;28;20181;-78
2022/11/27 06:58:13;;;;;;;3.90;2.60;;;;;;;;;;4968782;28;20304;-77
2022/11/27 07:00:38;;;;;;;1.83;1.40;;;;;;;;;;4983125;28;20176;-78
2022/11/27 07:03:03;;;;;;;3.33;1.37;;;;;;;;;;4973807;28;20199;-78
2022/11/27 07:05:28;;;;;;;2.37;1.43;;;;;;;;;;4974509;28;20208;-78
2022/11/27 07:07:54;;;;;;;3.53;1.67;;;;;;;;;;4977114;28;20169;-78
2022/11/27 07:10:19;;;;;;;2.40;1.60;;;;;;;;;;4975869;28;20177;-78
2022/11/27 07:12:44;;;;;;;4.50;2.60;;;;;;;;;;4962479;28;20179;-78
2022/11/27 07:15:10;;;;;;;4.13;2.23;;;;;;;;;;4967703;28;20192;-77
2022/11/27 07:17:36;;;;;;;2.43;1.70;;;;;;;;;;4965647;28;20197;-78
2022/11/27 07:20:01;;;;;;;2.23;1.63;;;;;;;;;;4976780;28;20290;-78
2022/11/27 07:22:26;;;;;;;3.50;2.30;;;;;;;;;;4972955;28;20180;-78
2022/11/27 07:24:54;;;;;;;1.87;1.63;;;;;;;;;;4973411;28;20275;-78
2022/11/27 07:27:19;;;;;;;2.13;1.90;;;;;;;;;;4964454;28;20192;-78
2022/11/27 07:29:44;;;;;;;1.80;1.70;;;;;;;;;;4987073;28;20173;-77
2022/11/27 07:32:10;;;;;;;2.40;2.20;;;;;;;;;;4984500;28;21904;-78
2022/11/27 07:34:35;;;;;;;2.20;2.00;;;;;;;;;;4974474;28;20195;-78
2022/11/27 07:37:00;;;;;;;3.30;2.00;;;;;;;;;;4968703;28;20185;-78
2022/11/27 07:39:25;;;;;;;2.00;1.70;;;;;;;;;;4969594;28;20276;-77
2022/11/27 07:41:50;;;;;;;3.40;3.10;;;;;;;;;;4969540;28;20184;-78
2022/11/27 07:44:16;;;;;;;4.67;2.30;;;;;;;;;;4968276;28;20204;-77
2022/11/27 07:46:41;;;;;;;3.83;2.07;;;;;;;;;;4986999;28;20181;-77
2022/11/27 07:49:06;;;;;;;2.93;2.00;;;;;;;;;;4961683;28;20321;-78
2022/11/27 07:51:31;;;;;;;2.70;1.90;;;;;;;;;;4972048;28;20180;-78
2022/11/27 07:53:58;;;;;;;1.50;1.40;;;;;;;;;;4976075;28;20176;-77
2022/11/27 07:56:23;;;;;;;3.03;1.60;;;;;;;;;;4968580;28;20185;-78
2022/11/27 07:58:48;;;;;;;1.63;1.53;;;;;;;;;;4966048;28;20195;-77
2022/11/27 08:01:15;;;;;;;1.70;1.50;;;;;;;;;;4966007;28;20195;-78
2022/11/27 08:03:43;;;;;;;3.70;2.03;;;;;;;;;;4965337;28;20181;-78
2022/11/27 08:06:14;;;;;;;3.50;1.70;;;;;;;;;;4973398;28;20196;-77
2022/11/27 08:08:39;;;;;;;1.73;1.63;;;;;;;;;;4974765;28;20247;-77
2022/11/27 08:11:04;;;;;;;2.10;1.60;;;;;;;;;;4967594;28;20247;-77
2022/11/27 08:13:30;;;;;;;1.50;1.40;;;;;;;;;;4974801;28;20187;-77
2022/11/27 08:15:57;;;;;;;1.77;1.60;;;;;;;;;;4976981;28;20236;-77
2022/11/27 08:18:23;;;;;;;3.93;1.73;;;;;;;;;;4972026;28;20286;-77
2022/11/27 08:20:48;;;;;;;1.73;1.53;;;;;;;;;;4977285;28;20176;-77
2022/11/27 08:23:13;;;;;;;2.70;1.73;;;;;;;;;;4974332;28;20212;-77
2022/11/27 08:25:38;;;;;;;3.40;2.63;;;;;;;;;;4980748;28;20251;-77
2022/11/27 08:28:03;;;;;;;1.70;1.60;;;;;;;;;;4974129;28;20227;-76
2022/11/27 08:30:29;;;;;;;2.47;2.27;;;;;;;;;;4977235;28;20176;-77
2022/11/27 08:32:54;;;;;;;2.10;1.77;;;;;;;;;;4979946;28;20200;-77
2022/11/27 08:35:19;;;;;;;3.83;1.93;;;;;;;;;;4974068;28;20176;-77
2022/11/27 08:37:44;;;;;;;1.30;1.20;;;;;;;;;;4993600;28;20190;-77
2022/11/27 08:40:10;;;;;;;1.70;1.60;;;;;;;;;;4973091;28;20261;-76
2022/11/27 08:42:35;;;;;;;2.27;1.80;;;;;;;;;;4974869;28;20188;-76
2022/11/27 08:45:00;;;;;;;3.30;2.70;;;;;;;;;;4976468;28;20197;-76
2022/11/27 08:47:25;;;;;;;4.03;2.83;;;;;;;;;;4966726;28;20192;-76
2022/11/27 08:49:50;;;;;;;4.13;3.43;;;;;;;;;;4973572;28;20181;-77
2022/11/27 08:52:16;;;;;;;3.73;2.87;;;;;;;;;;4967253;28;20180;-76
2022/11/27 08:54:41;;;;;;;2.70;2.30;;;;;;;;;;4971960;28;20173;-76
2022/11/27 08:57:06;;;;;;;4.23;2.80;;;;;;;;;;4975785;28;20180;-77
2022/11/27 08:59:31;;;;;;;2.10;1.40;;;;;;;;;;4970763;28;20176;-77
2022/11/27 09:01:56;;;;;;;2.07;1.80;;;;;;;;;;4976247;28;20177;-76
2022/11/27 09:04:22;;;;;;;3.00;2.23;;;;;;;;;;4971410;28;20209;-76
2022/11/27 09:06:49;;;;;;;2.57;2.00;;;;;;;;;;4976020;28;20169;-76
2022/11/27 09:09:15;;;;;;;2.00;1.40;;;;;;;;;;4981136;28;20183;-76
2022/11/27 09:11:40;;;;;;;3.97;1.60;;;;;;;;;;4980042;28;20184;-76
2022/11/27 09:14:05;;;;;;;4.00;1.80;;;;;;;;;;4973634;28;20177;-76
2022/11/27 09:16:31;;;;;;;3.30;1.53;;;;;;;;;;4978391;28;20177;-77
2022/11/27 09:18:56;;;;;;;1.20;1.10;;;;;;;;;;4967335;28;20222;-76
2022/11/27 09:21:22;;;;;;;2.20;1.73;;;;;;;;;;4966470;28;20209;-76
2022/11/27 09:23:51;;;;;;;2.33;2.13;;;;;;;;;;4970223;28;20204;-77
2022/11/27 09:26:16;;;;;;;1.50;1.40;;;;;;;;;;4965834;28;20269;-77
2022/11/27 09:28:42;;;;;;;1.73;1.30;;;;;;;;;;4970670;28;20272;-76
2022/11/27 09:31:08;;;;;;;1.30;1.20;;;;;;;;;;4972301;28;20168;-77
2022/11/27 09:33:34;;;;;;;3.67;2.17;;;;;;;;;;4957770;28;20189;-77
2022/11/27 09:36:04;;;;;;;1.40;1.30;;;;;;;;;;4967206;28;20220;-76
2022/11/27 09:38:29;;;;;;;2.63;1.53;;;;;;;;;;4972231;28;20188;-76
2022/11/27 09:40:57;;;;;;;1.60;1.40;;;;;;;;;;4994011;28;20177;-77
2022/11/27 09:43:26;;;;;;;2.43;2.23;;;;;;;;;;4969463;28;20203;-76
2022/11/27 09:45:55;;;;;;;1.40;1.30;;;;;;;;;;4998483;28;20187;-77
2022/11/27 09:48:24;;;;;;;2.50;1.50;;;;;;;;;;4977569;28;20176;-76
2022/11/27 09:50:51;;;;;;;4.17;1.50;;;;;;;;;;4975292;28;20194;-76
2022/11/27 09:53:22;;;;;;;2.37;1.33;;;;;;;;;;4974460;28;20174;-77
2022/11/27 09:55:48;;;;;;;2.43;1.20;;;;;;;;;;4971125;28;20182;-77
2022/11/27 09:58:26;;;;;;;1.27;1.17;;;;;;;;;;4970127;28;20180;-77
2022/11/27 10:00:51;;;;;;;1.90;1.17;;;;;;;;;;4968638;28;20185;-76
2022/11/27 10:03:24;;;;;;;2.40;1.30;;;;;;;;;;4971382;28;20243;-77
2022/11/27 10:06:01;;;;;;;2.17;1.10;;;;;;;;;;4970547;28;20216;-76
2022/11/27 10:08:34;;;;;;;2.10;1.27;;;;;;;;;;4981631;28;20179;-77
2022/11/27 10:11:08;;;;;;;1.20;1.10;;;;;;;;;;4967324;28;20182;-77
2022/11/27 10:14:01;;;;;;;1.37;1.23;;;;;;;;;;4968727;28;20176;-76
2022/11/27 10:16:29;;;;;;;1.33;1.00;;;;;;;;;;4951764;28;20207;-77
2022/11/27 10:18:58;;;;;;;1.43;1.30;;;;;;;;;;4978469;28;20253;-77
2022/11/27 10:21:34;;;;;;;1.23;1.13;;;;;;;;;;4977191;28;20254;-77
2022/11/27 10:24:02;;;;;;;2.47;1.30;;;;;;;;;;4974732;28;20204;-77
2022/11/27 10:26:35;;;;;;;1.73;1.23;;;;;;;;;;4969850;28;21619;-77
2022/11/27 10:29:00;;;;;;;1.63;1.10;;;;;;;;;;4980787;28;20179;-77
2022/11/27 10:31:32;;;;;;;1.27;1.17;;;;;;;;;;4971519;28;20227;-77
2022/11/27 10:34:19;;;;;;;1.27;1.17;;;;;;;;;;4973980;28;20187;-77
2022/11/27 10:36:46;;;;;;;1.07;1.07;;;;;;;;;;4971787;28;20190;-77
2022/11/27 10:39:15;;;;;;;1.70;1.03;;;;;;;;;;4976733;28;20184;-77
2022/11/27 10:41:44;;;;;;;2.07;1.30;;;;;;;;;;4972109;28;20207;-77
2022/11/27 10:44:29;;;;;;;0.80;0.80;;;;;;;;;;4967998;28;20644;-77
2022/11/27 10:46:58;;;;;;;2.00;1.30;;;;;;;;;;4967921;28;20203;-77
2022/11/27 10:49:23;;;;;;;1.03;1.00;;;;;;;;;;4986921;28;20243;-77
2022/11/27 10:51:48;;;;;;;1.13;1.00;;;;;;;;;;4978184;28;20257;-76
2022/11/27 10:54:26;;;;;;;2.90;1.67;;;;;;;;;;4973755;28;20198;-77
2022/11/27 10:57:07;;;;;;;5.73;1.43;;;;;;;;;;4982885;28;20443;-77
2022/11/27 10:59:34;;;;;;;1.87;1.27;;;;;;;;;;4966464;28;20194;-77
2022/11/27 11:02:02;;;;;;;2.07;1.50;;;;;;;;;;4971177;28;20286;-77
2022/11/27 11:04:30;;;;;;;1.37;1.27;;;;;;;;;;4973744;28;20242;-77
2022/11/27 11:06:55;;;;;;;1.00;1.00;;;;;;;;;;4973737;28;20194;-77
2022/11/27 11:09:24;;;;;;;1.00;1.00;;;;;;;;;;4972811;28;20180;-77
2022/11/27 11:11:49;;;;;;;1.43;1.20;;;;;;;;;;4971110;28;20191;-77
2022/11/27 11:14:22;;;;;;;1.20;1.10;;;;;;;;;;4972044;28;20191;-77
2022/11/27 11:16:47;;;;;;;0.80;0.80;;;;;;;;;;4982570;28;20224;-77
2022/11/27 11:19:22;;;;;;;1.43;1.20;;;;;;;;;;4966567;28;20277;-77
2022/11/27 11:21:47;;;;;;;1.37;1.10;;;;;;;;;;4973895;28;20457;-77
2022/11/27 11:24:24;;;;;;;1.50;1.40;;;;;;;;;;4981918;28;20303;-77
2022/11/27 11:26:52;;;;;;;1.53;1.33;;;;;;;;;;4971212;28;20178;-77
2022/11/27 11:29:29;;;;;;;3.60;2.00;;;;;;;;;;4970115;28;20182;-77
2022/11/27 11:31:56;;;;;;;2.43;1.33;;;;;;;;;;4971576;28;20190;-77
2022/11/27 11:34:26;;;;;;;3.30;1.30;;;;;;;;;;4973090;28;20194;-77
2022/11/27 11:36:55;;;;;;;1.17;1.10;;;;;;;;;;4969132;28;20190;-77
2022/11/27 11:39:24;;;;;;;3.40;1.70;;;;;;;;;;4976441;28;20180;-77
2022/11/27 11:41:50;;;;;;;2.07;1.13;;;;;;;;;;4970189;28;20456;-77
2022/11/27 11:44:20;;;;;;;1.87;1.50;;;;;;;;;;4970180;28;20215;-78
2022/11/27 11:46:50;;;;;;;1.53;1.03;;;;;;;;;;4975818;28;20211;-78
2022/11/27 11:49:25;;;;;;;1.53;1.20;;;;;;;;;;4978460;28;20183;-77
2022/11/27 11:52:09;;;;;;;1.20;1.10;;;;;;;;;;4969218;28;20180;-78
2022/11/27 11:54:47;;;;;;;1.37;1.30;;;;;;;;;;4971045;28;20188;-77
2022/11/27 11:57:31;;;;;;;1.50;1.40;;;;;;;;;;4972810;28;20215;-77
2022/11/27 12:00:21;;;;;;;2.60;2.10;;;;;;;;;;4970355;28;20194;-77
2022/11/27 12:02:54;;;;;;;1.97;1.23;;;;;;;;;;4963855;28;20200;-77
2022/11/27 12:05:31;;;;;;;4.83;2.60;;;;;;;;;;4973509;28;20213;-77
2022/11/27 12:07:57;;;;;;;2.77;2.13;;;;;;;;;;4974888;28;20184;-77
2022/11/27 12:10:22;;;;;;;5.30;3.83;;;;;;;;;;4968602;28;20180;-77
2022/11/27 12:12:47;;;;;;;1.97;1.40;;;;;;;;;;4974980;28;20175;-77
2022/11/27 12:15:19;;;;;;;1.53;1.30;;;;;;;;;;4981947;28;20194;-77
2022/11/27 12:17:57;;;;;;;3.20;2.27;;;;;;;;;;4974951;28;20238;-77
2022/11/27 12:20:30;;;;;;;4.93;3.03;;;;;;;;;;4979182;28;20196;-77
2022/11/27 12:23:07;;;;;;;2.27;2.07;;;;;;;;;;4984182;28;20179;-77
2022/11/27 12:25:36;;;;;;;4.67;3.77;;;;;;;;;;4965387;28;20213;-77
2022/11/27 12:28:19;;;;;;;7.80;4.80;;;;;;;;;;4972359;28;20187;-77
2022/11/27 12:31:08;;;;;;;4.57;2.37;;;;;;;;;;4975644;28;20192;-77
2022/11/27 12:33:45;;;;;;;9.37;5.23;;;;;;;;;;4977589;28;20181;-77
2022/11/27 12:36:20;;;;;;;8.47;2.70;;;;;;;;;;4970818;28;20196;-77
2022/11/27 12:38:57;;;;;;;4.73;3.00;;;;;;;;;;4974239;28;20184;-77
2022/11/27 12:41:35;;;;;;;7.47;4.03;;;;;;;;;;4976304;28;20206;-77
2022/11/27 12:44:00;;;;;;;2.50;2.23;;;;;;;;;;4971996;28;20998;-77
2022/11/27 12:46:44;;;;;;;7.37;4.80;;;;;;;;;;4976676;28;20234;-77
2022/11/27 12:49:12;;;;;;;2.53;2.30;;;;;;;;;;4983887;28;20243;-77
2022/11/27 12:51:44;;;;;;;4.13;2.13;;;;;;;;;;4968066;28;20192;-78
2022/11/27 12:54:16;;;;;;;17.27;11.57;;;;;;;;;;4967724;28;20184;-77
2022/11/27 12:56:44;;;;;;;4.77;3.40;;;;;;;;;;4979198;28;20278;-77
2022/11/27 12:59:12;;;;;;;15.23;6.40;;;;;;;;;;4982606;28;20185;-77
2022/11/27 13:01:58;;;;;;;6.33;3.87;;;;;;;;;;4971112;28;20213;-78
2022/11/27 13:04:29;;;;;;;10.17;6.67;;;;;;;;;;4983371;28;21160;-77
2022/11/27 13:07:03;;;;;;;12.23;5.43;;;;;;;;;;4978814;28;20172;-77
2022/11/27 13:09:49;;;;;;;7.47;4.50;;;;;;;;;;4974514;28;20188;-77
2022/11/27 13:12:25;;;;;;;25.00;8.73;;;;;;;;;;4975854;28;20263;-77
2022/11/27 13:14:54;;;;;;;7.60;3.60;;;;;;;;;;4970473;28;20252;-77
2022/11/27 13:17:19;;;;;;;18.73;10.70;;;;;;;;;;4972201;28;20293;-78
2022/11/27 13:19:46;;;;;;;5.90;5.37;;;;;;;;;;4975489;28;20322;-77
2022/11/27 13:22:13;;;;;;;6.23;2.90;;;;;;;;;;4988348;28;20188;-77
2022/11/27 13:24:38;;;;;;;3.90;2.50;;;;;;;;;;4973074;28;20292;-77
2022/11/27 13:27:08;;;;;;;4.70;3.57;;;;;;;;;;4980934;28;20269;-77
2022/11/27 13:29:52;;;;;;;9.57;3.80;;;;;;;;;;4985191;28;20179;-77
2022/11/27 13:32:20;;;;;;;3.47;3.17;;;;;;;;;;4970397;28;20268;-78
2022/11/27 13:34:46;;;;;;;3.43;3.03;;;;;;;;;;4972759;28;20212;-77
2022/11/27 13:37:40;;;;;;;3.83;3.43;;;;;;;;;;4974643;28;20222;-77
2022/11/27 13:40:20;;;;;;;20.07;13.77;;;;;;;;;;4975237;28;20191;-78
2022/11/27 13:42:48;;;;;;;7.67;5.13;;;;;;;;;;4971339;28;20184;-78
2022/11/27 13:45:19;;;;;;;3.20;2.90;;;;;;;;;;4974792;28;20210;-77
2022/11/27 13:47:45;;;;;;;4.90;3.20;;;;;;;;;;4968168;28;20182;-78
2022/11/27 13:50:12;;;;;;;4.20;2.70;;;;;;;;;;4974720;28;20188;-77
2022/11/27 13:52:48;;;;;;;7.90;4.40;;;;;;;;;;4974568;28;20182;-78
2022/11/27 13:55:21;;;;;;;3.77;3.30;;;;;;;;;;4992497;28;20214;-78
2022/11/27 13:57:53;;;;;;;4.00;3.30;;;;;;;;;;4976723;28;20186;-77
2022/11/27 14:00:29;;;;;;;5.00;4.60;;;;;;;;;;4970406;28;20188;-78
2022/11/27 14:02:54;;;;;;;4.90;3.50;;;;;;;;;;4975406;28;20174;-78
2022/11/27 14:05:20;;;;;;;3.70;3.13;;;;;;;;;;4967433;28;20199;-78
2022/11/27 14:07:53;;;;;;;3.17;2.77;;;;;;;;;;4968235;28;20206;-77
2022/11/27 14:10:20;;;;;;;3.30;3.00;;;;;;;;;;4973942;28;20609;-78
2022/11/27 14:12:54;;;;;;;3.90;3.20;;;;;;;;;;4980463;28;20201;-77
2022/11/27 14:15:22;;;;;;;3.03;2.57;;;;;;;;;;4975072;28;20182;-77
2022/11/27 14:17:48;;;;;;;13.97;4.20;;;;;;;;;;4966188;28;20247;-78
2022/11/27 14:20:16;;;;;;;5.60;3.87;;;;;;;;;;4969643;28;20220;-77
2022/11/27 14:22:47;;;;;;;14.97;9.53;;;;;;;;;;4975826;28;20196;-77
2022/11/27 14:25:27;;;;;;;4.43;4.03;;;;;;;;;;4968072;28;20263;-78
2022/11/27 14:27:57;;;;;;;9.00;8.30;;;;;;;;;;4970595;28;20244;-77
2022/11/27 14:30:31;;;;;;;9.20;8.13;;;;;;;;;;4969687;28;20184;-77
2022/11/27 14:32:56;;;;;;;9.60;8.60;;;;;;;;;;4975267;28;20188;-78
2022/11/27 14:35:23;;;;;;;13.47;12.30;;;;;;;;;;4968235;28;20276;-77
2022/11/27 14:37:48;;;;;;;10.93;9.00;;;;;;;;;;4974312;28;20251;-77
2022/11/27 14:40:14;;;;;;;5.27;4.77;;;;;;;;;;4971225;28;20183;-77
2022/11/27 14:42:39;;;;;;;4.50;3.73;;;;;;;;;;4967115;28;20185;-77
2022/11/27 14:45:05;;;;;;;3.80;3.20;;;;;;;;;;4988038;28;20212;-78
2022/11/27 14:47:31;;;;;;;3.90;3.50;;;;;;;;;;4978205;28;20226;-78
2022/11/27 14:49:56;;;;;;;9.53;4.17;;;;;;;;;;4971760;28;20191;-78